sensor_id;sensor_type;location;lat;lon;timestamp;P1;durP1;ratioP1;P2;durP2;ratioP2
10303;SDS011;5197;48.152;8.590;2023-08-06T00:01:46;4.10;;;2.17;;
10303;SDS011;5197;48.152;8.590;2023-08-06T00:04:13;2.07;;;1.97;;
10303;SDS011;5197;48.152;8.590;2023-08-06T00:06:40;2.40;;;2.20;;
10303;SDS011;5197;48.152;8.590;2023-08-06T00:09:07;2.00;;;1.90;;
10303;SDS011;5197;48.152;8.590;2023-08-06T00:11:34;2.37;;;2.00;;
10303;SDS011;5197;48.152;8.590;2023-08-06T00:14:01;1.73;;;1.63;;
10303;SDS011;5197;48.152;8.590;2023-08-06T00:16:28;2.33;;;2.13;;
10303;SDS011;5197;48.152;8.590;2023-08-06T00:18:55;3.13;;;2.10;;
10303;SDS011;5197;48.152;8.590;2023-08-06T00:21:22;2.10;;;1.83;;
10303;SDS011;5197;48.152;8.590;2023-08-06T00:23:48;3.43;;;2.43;;
10303;SDS011;5197;48.152;8.590;2023-08-06T00:26:15;3.33;;;2.00;;
10303;SDS011;5197;48.152;8.590;2023-08-06T00:28:42;2.30;;;2.10;;
10303;SDS011;5197;48.152;8.590;2023-08-06T00:31:09;4.60;;;1.97;;
10303;SDS011;5197;48.152;8.590;2023-08-06T00:33:36;3.10;;;2.30;;
10303;SDS011;5197;48.152;8.590;2023-08-06T00:36:02;4.20;;;2.13;;
10303;SDS011;5197;48.152;8.590;2023-08-06T00:38:29;3.33;;;1.90;;
10303;SDS011;5197;48.152;8.590;2023-08-06T00:40:56;2.20;;;2.00;;
10303;SDS011;5197;48.152;8.590;2023-08-06T00:43:23;2.63;;;1.70;;
10303;SDS011;5197;48.152;8.590;2023-08-06T00:45:50;3.33;;;1.80;;
10303;SDS011;5197;48.152;8.590;2023-08-06T00:48:17;2.47;;;2.17;;
10303;SDS011;5197;48.152;8.590;2023-08-06T00:50:44;1.80;;;1.70;;
10303;SDS011;5197;48.152;8.590;2023-08-06T00:53:11;2.20;;;2.00;;
10303;SDS011;5197;48.152;8.590;2023-08-06T00:55:39;3.73;;;2.13;;
10303;SDS011;5197;48.152;8.590;2023-08-06T00:58:06;1.93;;;1.80;;
10303;SDS011;5197;48.152;8.590;2023-08-06T01:00:36;2.13;;;1.87;;
10303;SDS011;5197;48.152;8.590;2023-08-06T01:03:04;2.20;;;2.00;;
10303;SDS011;5197;48.152;8.590;2023-08-06T01:05:31;2.10;;;2.00;;
10303;SDS011;5197;48.152;8.590;2023-08-06T01:13:43;2.17;;;1.97;;
10303;SDS011;5197;48.152;8.590;2023-08-06T01:16:18;2.83;;;1.93;;
10303;SDS011;5197;48.152;8.590;2023-08-06T01:18:47;2.60;;;1.80;;
10303;SDS011;5197;48.152;8.590;2023-08-06T01:21:16;3.87;;;2.20;;
10303;SDS011;5197;48.152;8.590;2023-08-06T01:23:43;2.77;;;1.97;;
10303;SDS011;5197;48.152;8.590;2023-08-06T01:26:19;4.00;;;1.77;;
10303;SDS011;5197;48.152;8.590;2023-08-06T01:29:09;1.80;;;1.70;;
10303;SDS011;5197;48.152;8.590;2023-08-06T01:31:50;7.30;;;2.17;;
10303;SDS011;5197;48.152;8.590;2023-08-06T01:34:27;2.10;;;1.93;;
10303;SDS011;5197;48.152;8.590;2023-08-06T01:36:57;2.73;;;1.67;;
10303;SDS011;5197;48.152;8.590;2023-08-06T01:39:25;3.43;;;2.20;;
10303;SDS011;5197;48.152;8.590;2023-08-06T01:41:52;4.07;;;1.80;;
10303;SDS011;5197;48.152;8.590;2023-08-06T01:44:19;2.40;;;1.80;;
10303;SDS011;5197;48.152;8.590;2023-08-06T01:46:46;1.80;;;1.70;;
10303;SDS011;5197;48.152;8.590;2023-08-06T01:49:13;2.07;;;1.80;;
10303;SDS011;5197;48.152;8.590;2023-08-06T01:51:40;1.83;;;1.73;;
10303;SDS011;5197;48.152;8.590;2023-08-06T01:54:07;1.80;;;1.70;;
10303;SDS011;5197;48.152;8.590;2023-08-06T01:56:34;2.07;;;1.93;;
10303;SDS011;5197;48.152;8.590;2023-08-06T01:59:00;2.80;;;2.00;;
10303;SDS011;5197;48.152;8.590;2023-08-06T02:01:30;2.13;;;1.77;;
10303;SDS011;5197;48.152;8.590;2023-08-06T02:03:57;2.03;;;1.90;;
10303;SDS011;5197;48.152;8.590;2023-08-06T02:06:24;2.13;;;1.70;;
10303;SDS011;5197;48.152;8.590;2023-08-06T02:08:51;2.37;;;2.10;;
10303;SDS011;5197;48.152;8.590;2023-08-06T02:11:17;1.70;;;1.60;;
10303;SDS011;5197;48.152;8.590;2023-08-06T02:13:45;1.80;;;1.57;;
10303;SDS011;5197;48.152;8.590;2023-08-06T02:16:12;3.20;;;2.00;;
10303;SDS011;5197;48.152;8.590;2023-08-06T02:18:39;2.70;;;1.80;;
10303;SDS011;5197;48.152;8.590;2023-08-06T02:21:06;2.07;;;1.87;;
10303;SDS011;5197;48.152;8.590;2023-08-06T02:23:33;1.73;;;1.63;;
10303;SDS011;5197;48.152;8.590;2023-08-06T02:26:00;1.73;;;1.63;;
10303;SDS011;5197;48.152;8.590;2023-08-06T02:28:29;2.67;;;1.93;;
10303;SDS011;5197;48.152;8.590;2023-08-06T02:30:57;1.80;;;1.70;;
10303;SDS011;5197;48.152;8.590;2023-08-06T02:33:24;2.00;;;1.83;;
10303;SDS011;5197;48.152;8.590;2023-08-06T02:35:51;2.07;;;1.80;;
10303;SDS011;5197;48.152;8.590;2023-08-06T02:38:26;1.70;;;1.60;;
10303;SDS011;5197;48.152;8.590;2023-08-06T02:40:53;2.60;;;1.90;;
10303;SDS011;5197;48.152;8.590;2023-08-06T02:43:20;2.33;;;1.97;;
10303;SDS011;5197;48.152;8.590;2023-08-06T02:45:47;2.10;;;1.73;;
10303;SDS011;5197;48.152;8.590;2023-08-06T02:48:14;1.77;;;1.67;;
10303;SDS011;5197;48.152;8.590;2023-08-06T02:50:41;2.97;;;1.80;;
10303;SDS011;5197;48.152;8.590;2023-08-06T02:53:08;2.03;;;1.83;;
10303;SDS011;5197;48.152;8.590;2023-08-06T02:55:35;4.97;;;1.77;;
10303;SDS011;5197;48.152;8.590;2023-08-06T02:58:02;2.10;;;2.00;;
10303;SDS011;5197;48.152;8.590;2023-08-06T03:00:29;3.73;;;2.00;;
10303;SDS011;5197;48.152;8.590;2023-08-06T03:02:56;3.33;;;2.20;;
10303;SDS011;5197;48.152;8.590;2023-08-06T03:05:23;3.17;;;2.00;;
10303;SDS011;5197;48.152;8.590;2023-08-06T03:07:50;4.10;;;2.10;;
10303;SDS011;5197;48.152;8.590;2023-08-06T03:10:17;2.30;;;2.10;;
10303;SDS011;5197;48.152;8.590;2023-08-06T03:12:44;2.30;;;1.93;;
10303;SDS011;5197;48.152;8.590;2023-08-06T03:15:11;3.07;;;2.23;;
10303;SDS011;5197;48.152;8.590;2023-08-06T03:17:37;4.30;;;2.00;;
10303;SDS011;5197;48.152;8.590;2023-08-06T03:20:05;1.93;;;1.73;;
10303;SDS011;5197;48.152;8.590;2023-08-06T03:22:32;2.67;;;2.03;;
10303;SDS011;5197;48.152;8.590;2023-08-06T03:24:59;3.23;;;1.77;;
10303;SDS011;5197;48.152;8.590;2023-08-06T03:27:26;6.10;;;2.10;;
10303;SDS011;5197;48.152;8.590;2023-08-06T03:29:53;4.97;;;2.37;;
10303;SDS011;5197;48.152;8.590;2023-08-06T03:32:20;2.10;;;1.90;;
10303;SDS011;5197;48.152;8.590;2023-08-06T03:34:46;2.27;;;1.90;;
10303;SDS011;5197;48.152;8.590;2023-08-06T03:37:13;2.00;;;1.83;;
10303;SDS011;5197;48.152;8.590;2023-08-06T03:39:40;2.67;;;1.77;;
10303;SDS011;5197;48.152;8.590;2023-08-06T03:42:07;4.27;;;1.70;;
10303;SDS011;5197;48.152;8.590;2023-08-06T03:44:34;1.80;;;1.27;;
10303;SDS011;5197;48.152;8.590;2023-08-06T03:47:01;1.47;;;0.90;;
10303;SDS011;5197;48.152;8.590;2023-08-06T03:49:28;2.73;;;0.97;;
10303;SDS011;5197;48.152;8.590;2023-08-06T03:51:55;1.60;;;0.87;;
10303;SDS011;5197;48.152;8.590;2023-08-06T03:54:21;2.17;;;1.10;;
10303;SDS011;5197;48.152;8.590;2023-08-06T03:56:48;2.07;;;0.53;;
10303;SDS011;5197;48.152;8.590;2023-08-06T03:59:15;1.00;;;0.30;;
10303;SDS011;5197;48.152;8.590;2023-08-06T04:01:42;1.13;;;0.60;;
10303;SDS011;5197;48.152;8.590;2023-08-06T04:04:09;0.50;;;0.50;;
10303;SDS011;5197;48.152;8.590;2023-08-06T04:06:35;0.80;;;0.43;;
10303;SDS011;5197;48.152;8.590;2023-08-06T04:09:02;0.93;;;0.67;;
10303;SDS011;5197;48.152;8.590;2023-08-06T04:11:29;0.63;;;0.47;;
10303;SDS011;5197;48.152;8.590;2023-08-06T04:13:56;0.60;;;0.50;;
10303;SDS011;5197;48.152;8.590;2023-08-06T04:16:23;0.57;;;0.40;;
10303;SDS011;5197;48.152;8.590;2023-08-06T04:18:52;0.80;;;0.37;;
10303;SDS011;5197;48.152;8.590;2023-08-06T04:21:21;0.30;;;0.30;;
10303;SDS011;5197;48.152;8.590;2023-08-06T04:23:48;0.93;;;0.53;;
10303;SDS011;5197;48.152;8.590;2023-08-06T04:26:16;2.20;;;0.50;;
10303;SDS011;5197;48.152;8.590;2023-08-06T04:28:43;0.70;;;0.60;;
10303;SDS011;5197;48.152;8.590;2023-08-06T04:31:10;3.97;;;0.80;;
10303;SDS011;5197;48.152;8.590;2023-08-06T04:33:36;2.17;;;0.60;;
10303;SDS011;5197;48.152;8.590;2023-08-06T04:36:03;1.10;;;0.40;;
10303;SDS011;5197;48.152;8.590;2023-08-06T04:38:31;0.60;;;0.57;;
10303;SDS011;5197;48.152;8.590;2023-08-06T04:40:58;3.17;;;0.30;;
10303;SDS011;5197;48.152;8.590;2023-08-06T04:43:25;0.63;;;0.30;;
10303;SDS011;5197;48.152;8.590;2023-08-06T04:45:53;1.03;;;0.53;;
10303;SDS011;5197;48.152;8.590;2023-08-06T04:48:22;0.70;;;0.30;;
10303;SDS011;5197;48.152;8.590;2023-08-06T04:50:50;0.40;;;0.40;;
10303;SDS011;5197;48.152;8.590;2023-08-06T04:53:17;0.50;;;0.50;;
10303;SDS011;5197;48.152;8.590;2023-08-06T04:55:44;0.50;;;0.50;;
10303;SDS011;5197;48.152;8.590;2023-08-06T04:58:12;0.40;;;0.33;;
10303;SDS011;5197;48.152;8.590;2023-08-06T05:00:39;3.70;;;0.60;;
10303;SDS011;5197;48.152;8.590;2023-08-06T05:03:06;1.83;;;0.40;;
10303;SDS011;5197;48.152;8.590;2023-08-06T05:05:33;0.47;;;0.47;;
10303;SDS011;5197;48.152;8.590;2023-08-06T05:08:01;2.37;;;0.43;;
10303;SDS011;5197;48.152;8.590;2023-08-06T05:10:27;0.37;;;0.30;;
10303;SDS011;5197;48.152;8.590;2023-08-06T05:12:54;1.30;;;0.60;;
10303;SDS011;5197;48.152;8.590;2023-08-06T05:15:21;1.30;;;0.57;;
10303;SDS011;5197;48.152;8.590;2023-08-06T05:17:48;3.80;;;0.60;;
10303;SDS011;5197;48.152;8.590;2023-08-06T05:20:15;0.40;;;0.40;;
10303;SDS011;5197;48.152;8.590;2023-08-06T05:22:43;0.47;;;0.40;;
10303;SDS011;5197;48.152;8.590;2023-08-06T05:25:13;0.70;;;0.53;;
10303;SDS011;5197;48.152;8.590;2023-08-06T05:27:40;2.23;;;0.53;;
10303;SDS011;5197;48.152;8.590;2023-08-06T05:30:08;0.60;;;0.60;;
10303;SDS011;5197;48.152;8.590;2023-08-06T05:32:35;0.37;;;0.37;;
10303;SDS011;5197;48.152;8.590;2023-08-06T05:35:02;1.07;;;0.50;;
10303;SDS011;5197;48.152;8.590;2023-08-06T05:37:29;0.63;;;0.33;;
10303;SDS011;5197;48.152;8.590;2023-08-06T05:39:56;7.83;;;2.83;;
10303;SDS011;5197;48.152;8.590;2023-08-06T05:42:23;0.50;;;0.30;;
10303;SDS011;5197;48.152;8.590;2023-08-06T05:44:50;0.77;;;0.40;;
10303;SDS011;5197;48.152;8.590;2023-08-06T05:47:17;0.90;;;0.53;;
10303;SDS011;5197;48.152;8.590;2023-08-06T05:49:43;0.33;;;0.30;;
10303;SDS011;5197;48.152;8.590;2023-08-06T05:52:10;1.80;;;0.40;;
10303;SDS011;5197;48.152;8.590;2023-08-06T05:54:37;0.43;;;0.37;;
10303;SDS011;5197;48.152;8.590;2023-08-06T05:57:04;0.53;;;0.43;;
10303;SDS011;5197;48.152;8.590;2023-08-06T05:59:32;0.60;;;0.30;;
10303;SDS011;5197;48.152;8.590;2023-08-06T06:01:58;0.40;;;0.40;;
10303;SDS011;5197;48.152;8.590;2023-08-06T06:04:26;0.20;;;0.20;;
10303;SDS011;5197;48.152;8.590;2023-08-06T06:06:52;0.60;;;0.43;;
10303;SDS011;5197;48.152;8.590;2023-08-06T06:09:19;0.30;;;0.30;;
10303;SDS011;5197;48.152;8.590;2023-08-06T06:11:46;0.67;;;0.43;;
10303;SDS011;5197;48.152;8.590;2023-08-06T06:14:18;0.57;;;0.30;;
10303;SDS011;5197;48.152;8.590;2023-08-06T06:16:45;0.20;;;0.20;;
10303;SDS011;5197;48.152;8.590;2023-08-06T06:19:12;0.37;;;0.30;;
10303;SDS011;5197;48.152;8.590;2023-08-06T06:21:39;0.97;;;0.50;;
10303;SDS011;5197;48.152;8.590;2023-08-06T06:24:06;0.10;;;0.10;;
10303;SDS011;5197;48.152;8.590;2023-08-06T06:26:34;0.43;;;0.30;;
10303;SDS011;5197;48.152;8.590;2023-08-06T06:29:01;0.10;;;0.10;;
10303;SDS011;5197;48.152;8.590;2023-08-06T06:31:28;0.40;;;0.40;;
10303;SDS011;5197;48.152;8.590;2023-08-06T06:33:56;0.90;;;0.30;;
10303;SDS011;5197;48.152;8.590;2023-08-06T06:36:23;0.10;;;0.10;;
10303;SDS011;5197;48.152;8.590;2023-08-06T06:38:50;0.37;;;0.20;;
10303;SDS011;5197;48.152;8.590;2023-08-06T06:41:17;1.87;;;0.20;;
10303;SDS011;5197;48.152;8.590;2023-08-06T06:43:44;0.13;;;0.13;;
10303;SDS011;5197;48.152;8.590;2023-08-06T06:46:11;0.30;;;0.30;;
10303;SDS011;5197;48.152;8.590;2023-08-06T06:48:38;0.60;;;0.60;;
10303;SDS011;5197;48.152;8.590;2023-08-06T06:51:05;0.20;;;0.20;;
10303;SDS011;5197;48.152;8.590;2023-08-06T06:53:31;0.30;;;0.10;;
10303;SDS011;5197;48.152;8.590;2023-08-06T06:56:03;0.10;;;0.10;;
10303;SDS011;5197;48.152;8.590;2023-08-06T06:58:31;0.20;;;0.20;;
10303;SDS011;5197;48.152;8.590;2023-08-06T07:00:59;0.43;;;0.20;;
10303;SDS011;5197;48.152;8.590;2023-08-06T07:03:26;0.70;;;0.70;;
10303;SDS011;5197;48.152;8.590;2023-08-06T07:05:56;0.80;;;0.80;;
10303;SDS011;5197;48.152;8.590;2023-08-06T07:08:25;0.17;;;0.17;;
10303;SDS011;5197;48.152;8.590;2023-08-06T07:10:59;0.30;;;0.30;;
10303;SDS011;5197;48.152;8.590;2023-08-06T07:13:30;0.20;;;0.10;;
10303;SDS011;5197;48.152;8.590;2023-08-06T07:15:57;0.10;;;0.10;;
10303;SDS011;5197;48.152;8.590;2023-08-06T07:18:24;0.40;;;0.20;;
10303;SDS011;5197;48.152;8.590;2023-08-06T07:20:52;0.10;;;0.10;;
10303;SDS011;5197;48.152;8.590;2023-08-06T07:23:20;1.40;;;0.20;;
10303;SDS011;5197;48.152;8.590;2023-08-06T07:25:48;1.03;;;0.50;;
10303;SDS011;5197;48.152;8.590;2023-08-06T07:28:15;0.70;;;0.20;;
10303;SDS011;5197;48.152;8.590;2023-08-06T07:30:43;0.20;;;0.20;;
10303;SDS011;5197;48.152;8.590;2023-08-06T07:33:10;0.00;;;0.00;;
10303;SDS011;5197;48.152;8.590;2023-08-06T07:35:37;0.10;;;0.10;;
10303;SDS011;5197;48.152;8.590;2023-08-06T07:38:04;0.10;;;0.10;;
10303;SDS011;5197;48.152;8.590;2023-08-06T07:40:31;0.10;;;0.10;;
10303;SDS011;5197;48.152;8.590;2023-08-06T07:42:58;0.70;;;0.20;;
10303;SDS011;5197;48.152;8.590;2023-08-06T07:45:25;0.67;;;0.10;;
10303;SDS011;5197;48.152;8.590;2023-08-06T07:47:53;0.47;;;0.20;;
10303;SDS011;5197;48.152;8.590;2023-08-06T07:50:20;0.23;;;0.10;;
10303;SDS011;5197;48.152;8.590;2023-08-06T07:52:47;0.73;;;0.23;;
10303;SDS011;5197;48.152;8.590;2023-08-06T07:55:14;0.20;;;0.20;;
10303;SDS011;5197;48.152;8.590;2023-08-06T07:57:42;0.80;;;0.17;;
10303;SDS011;5197;48.152;8.590;2023-08-06T08:00:08;0.20;;;0.20;;
10303;SDS011;5197;48.152;8.590;2023-08-06T08:02:36;0.47;;;0.40;;
10303;SDS011;5197;48.152;8.590;2023-08-06T08:05:03;0.60;;;0.27;;
10303;SDS011;5197;48.152;8.590;2023-08-06T08:07:30;0.13;;;0.13;;
10303;SDS011;5197;48.152;8.590;2023-08-06T08:09:57;0.83;;;0.20;;
10303;SDS011;5197;48.152;8.590;2023-08-06T08:12:24;0.63;;;0.30;;
10303;SDS011;5197;48.152;8.590;2023-08-06T08:14:51;0.13;;;0.13;;
10303;SDS011;5197;48.152;8.590;2023-08-06T08:17:18;0.47;;;0.47;;
10303;SDS011;5197;48.152;8.590;2023-08-06T08:19:44;0.30;;;0.30;;
10303;SDS011;5197;48.152;8.590;2023-08-06T08:22:11;0.47;;;0.47;;
10303;SDS011;5197;48.152;8.590;2023-08-06T08:24:38;0.20;;;0.20;;
10303;SDS011;5197;48.152;8.590;2023-08-06T08:27:05;0.10;;;0.10;;
10303;SDS011;5197;48.152;8.590;2023-08-06T08:29:33;0.20;;;0.20;;
10303;SDS011;5197;48.152;8.590;2023-08-06T08:32:00;0.27;;;0.20;;
10303;SDS011;5197;48.152;8.590;2023-08-06T08:34:27;0.10;;;0.10;;
10303;SDS011;5197;48.152;8.590;2023-08-06T08:36:54;0.63;;;0.20;;
10303;SDS011;5197;48.152;8.590;2023-08-06T08:39:22;0.23;;;0.20;;
10303;SDS011;5197;48.152;8.590;2023-08-06T08:41:49;0.00;;;0.00;;
10303;SDS011;5197;48.152;8.590;2023-08-06T08:44:16;0.20;;;0.20;;
10303;SDS011;5197;48.152;8.590;2023-08-06T08:46:44;0.10;;;0.10;;
10303;SDS011;5197;48.152;8.590;2023-08-06T08:49:14;0.00;;;0.00;;
10303;SDS011;5197;48.152;8.590;2023-08-06T08:51:41;0.20;;;0.20;;
10303;SDS011;5197;48.152;8.590;2023-08-06T08:54:09;0.00;;;0.00;;
10303;SDS011;5197;48.152;8.590;2023-08-06T08:56:39;0.30;;;0.27;;
10303;SDS011;5197;48.152;8.590;2023-08-06T08:59:06;0.20;;;0.20;;
10303;SDS011;5197;48.152;8.590;2023-08-06T09:01:33;0.10;;;0.10;;
10303;SDS011;5197;48.152;8.590;2023-08-06T09:04:01;0.20;;;0.20;;
10303;SDS011;5197;48.152;8.590;2023-08-06T09:06:29;0.00;;;0.00;;
10303;SDS011;5197;48.152;8.590;2023-08-06T09:09:09;0.40;;;0.20;;
10303;SDS011;5197;48.152;8.590;2023-08-06T09:11:43;0.50;;;0.30;;
10303;SDS011;5197;48.152;8.590;2023-08-06T09:14:11;0.30;;;0.10;;
10303;SDS011;5197;48.152;8.590;2023-08-06T09:16:38;0.10;;;0.10;;
10303;SDS011;5197;48.152;8.590;2023-08-06T09:19:11;0.27;;;0.27;;
10303;SDS011;5197;48.152;8.590;2023-08-06T09:21:39;0.53;;;0.50;;
10303;SDS011;5197;48.152;8.590;2023-08-06T09:24:10;0.70;;;0.70;;
10303;SDS011;5197;48.152;8.590;2023-08-06T09:26:42;3.90;;;1.10;;
10303;SDS011;5197;48.152;8.590;2023-08-06T09:29:11;0.87;;;0.87;;
10303;SDS011;5197;48.152;8.590;2023-08-06T09:31:42;1.13;;;0.20;;
10303;SDS011;5197;48.152;8.590;2023-08-06T09:34:17;0.57;;;0.20;;
10303;SDS011;5197;48.152;8.590;2023-08-06T09:36:49;0.20;;;0.20;;
10303;SDS011;5197;48.152;8.590;2023-08-06T09:39:18;3.03;;;0.30;;
10303;SDS011;5197;48.152;8.590;2023-08-06T09:41:46;0.67;;;0.30;;
10303;SDS011;5197;48.152;8.590;2023-08-06T09:44:18;0.10;;;0.10;;
10303;SDS011;5197;48.152;8.590;2023-08-06T09:46:49;0.43;;;0.20;;
10303;SDS011;5197;48.152;8.590;2023-08-06T09:49:20;0.30;;;0.30;;
10303;SDS011;5197;48.152;8.590;2023-08-06T09:51:51;0.30;;;0.30;;
10303;SDS011;5197;48.152;8.590;2023-08-06T09:54:22;0.50;;;0.30;;
10303;SDS011;5197;48.152;8.590;2023-08-06T09:56:56;1.17;;;0.53;;
10303;SDS011;5197;48.152;8.590;2023-08-06T09:59:23;0.20;;;0.20;;
10303;SDS011;5197;48.152;8.590;2023-08-06T10:01:51;0.70;;;0.70;;
10303;SDS011;5197;48.152;8.590;2023-08-06T10:04:20;0.20;;;0.20;;
10303;SDS011;5197;48.152;8.590;2023-08-06T10:06:51;1.37;;;1.27;;
10303;SDS011;5197;48.152;8.590;2023-08-06T10:09:19;1.90;;;1.80;;
10303;SDS011;5197;48.152;8.590;2023-08-06T10:11:49;0.83;;;0.83;;
10303;SDS011;5197;48.152;8.590;2023-08-06T10:14:21;1.50;;;1.40;;
10303;SDS011;5197;48.152;8.590;2023-08-06T10:16:52;1.37;;;1.17;;
10303;SDS011;5197;48.152;8.590;2023-08-06T10:19:21;1.53;;;1.43;;
10303;SDS011;5197;48.152;8.590;2023-08-06T10:27:34;3.27;;;2.30;;
10303;SDS011;5197;48.152;8.590;2023-08-06T10:32:57;0.80;;;0.80;;
10303;SDS011;5197;48.152;8.590;2023-08-06T10:35:47;0.87;;;0.67;;
10303;SDS011;5197;48.152;8.590;2023-08-06T10:43:25;0.50;;;0.20;;
10303;SDS011;5197;48.152;8.590;2023-08-06T10:45:55;0.47;;;0.47;;
10303;SDS011;5197;48.152;8.590;2023-08-06T10:48:34;1.73;;;0.50;;
10303;SDS011;5197;48.152;8.590;2023-08-06T10:51:07;0.77;;;0.20;;
10303;SDS011;5197;48.152;8.590;2023-08-06T10:53:35;0.27;;;0.27;;
10303;SDS011;5197;48.152;8.590;2023-08-06T10:56:16;0.10;;;0.10;;
10303;SDS011;5197;48.152;8.590;2023-08-06T10:58:43;0.43;;;0.20;;
10303;SDS011;5197;48.152;8.590;2023-08-06T11:01:11;0.13;;;0.13;;
10303;SDS011;5197;48.152;8.590;2023-08-06T11:03:39;0.30;;;0.20;;
10303;SDS011;5197;48.152;8.590;2023-08-06T11:06:07;1.03;;;0.20;;
10303;SDS011;5197;48.152;8.590;2023-08-06T11:08:42;0.17;;;0.17;;
10303;SDS011;5197;48.152;8.590;2023-08-06T11:11:15;0.23;;;0.23;;
10303;SDS011;5197;48.152;8.590;2023-08-06T11:13:47;0.37;;;0.10;;
10303;SDS011;5197;48.152;8.590;2023-08-06T11:16:18;0.53;;;0.20;;
10303;SDS011;5197;48.152;8.590;2023-08-06T11:18:47;1.23;;;0.30;;
10303;SDS011;5197;48.152;8.590;2023-08-06T11:21:15;1.60;;;0.20;;
10303;SDS011;5197;48.152;8.590;2023-08-06T11:23:45;0.20;;;0.20;;
10303;SDS011;5197;48.152;8.590;2023-08-06T11:26:12;0.20;;;0.10;;
10303;SDS011;5197;48.152;8.590;2023-08-06T11:28:45;0.17;;;0.17;;
10303;SDS011;5197;48.152;8.590;2023-08-06T11:31:22;0.10;;;0.10;;
10303;SDS011;5197;48.152;8.590;2023-08-06T11:33:53;0.40;;;0.10;;
10303;SDS011;5197;48.152;8.590;2023-08-06T11:36:28;0.90;;;0.67;;
10303;SDS011;5197;48.152;8.590;2023-08-06T11:38:59;5.27;;;4.77;;
10303;SDS011;5197;48.152;8.590;2023-08-06T11:41:29;1.00;;;1.00;;
10303;SDS011;5197;48.152;8.590;2023-08-06T11:43:57;0.50;;;0.50;;
10303;SDS011;5197;48.152;8.590;2023-08-06T11:46:27;0.20;;;0.20;;
10303;SDS011;5197;48.152;8.590;2023-08-06T11:48:55;0.67;;;0.50;;
10303;SDS011;5197;48.152;8.590;2023-08-06T11:51:23;0.40;;;0.40;;
10303;SDS011;5197;48.152;8.590;2023-08-06T11:53:58;1.40;;;1.40;;
10303;SDS011;5197;48.152;8.590;2023-08-06T11:56:25;0.40;;;0.40;;
10303;SDS011;5197;48.152;8.590;2023-08-06T11:58:54;2.00;;;2.00;;
10303;SDS011;5197;48.152;8.590;2023-08-06T12:01:21;2.40;;;1.50;;
10303;SDS011;5197;48.152;8.590;2023-08-06T12:03:48;1.10;;;1.10;;
10303;SDS011;5197;48.152;8.590;2023-08-06T12:06:15;2.73;;;2.53;;
10303;SDS011;5197;48.152;8.590;2023-08-06T12:08:42;1.90;;;1.80;;
10303;SDS011;5197;48.152;8.590;2023-08-06T12:11:09;1.63;;;1.53;;
10303;SDS011;5197;48.152;8.590;2023-08-06T12:13:36;1.90;;;1.80;;
10303;SDS011;5197;48.152;8.590;2023-08-06T12:16:04;0.60;;;0.60;;
10303;SDS011;5197;48.152;8.590;2023-08-06T12:18:30;0.30;;;0.30;;
10303;SDS011;5197;48.152;8.590;2023-08-06T12:20:57;0.27;;;0.23;;
10303;SDS011;5197;48.152;8.590;2023-08-06T12:23:24;0.27;;;0.27;;
10303;SDS011;5197;48.152;8.590;2023-08-06T12:25:52;0.60;;;0.60;;
10303;SDS011;5197;48.152;8.590;2023-08-06T12:28:19;0.10;;;0.10;;
10303;SDS011;5197;48.152;8.590;2023-08-06T12:30:49;0.30;;;0.30;;
10303;SDS011;5197;48.152;8.590;2023-08-06T12:33:17;0.30;;;0.30;;
10303;SDS011;5197;48.152;8.590;2023-08-06T12:35:43;0.23;;;0.20;;
10303;SDS011;5197;48.152;8.590;2023-08-06T12:38:10;0.20;;;0.20;;
10303;SDS011;5197;48.152;8.590;2023-08-06T12:40:37;0.20;;;0.20;;
10303;SDS011;5197;48.152;8.590;2023-08-06T12:43:08;0.20;;;0.20;;
10303;SDS011;5197;48.152;8.590;2023-08-06T12:45:35;0.20;;;0.20;;
10303;SDS011;5197;48.152;8.590;2023-08-06T12:48:03;0.50;;;0.50;;
10303;SDS011;5197;48.152;8.590;2023-08-06T12:50:30;0.17;;;0.17;;
10303;SDS011;5197;48.152;8.590;2023-08-06T12:52:59;0.80;;;0.80;;
10303;SDS011;5197;48.152;8.590;2023-08-06T12:55:26;0.47;;;0.47;;
10303;SDS011;5197;48.152;8.590;2023-08-06T12:57:57;0.53;;;0.50;;
10303;SDS011;5197;48.152;8.590;2023-08-06T13:00:25;0.10;;;0.10;;
10303;SDS011;5197;48.152;8.590;2023-08-06T13:02:53;1.20;;;0.20;;
10303;SDS011;5197;48.152;8.590;2023-08-06T13:05:20;0.20;;;0.20;;
10303;SDS011;5197;48.152;8.590;2023-08-06T13:07:47;0.10;;;0.10;;
10303;SDS011;5197;48.152;8.590;2023-08-06T13:10:14;0.23;;;0.10;;
10303;SDS011;5197;48.152;8.590;2023-08-06T13:12:41;0.23;;;0.23;;
10303;SDS011;5197;48.152;8.590;2023-08-06T13:15:08;0.10;;;0.10;;
10303;SDS011;5197;48.152;8.590;2023-08-06T13:17:36;0.10;;;0.10;;
10303;SDS011;5197;48.152;8.590;2023-08-06T13:20:03;0.10;;;0.10;;
10303;SDS011;5197;48.152;8.590;2023-08-06T13:22:30;0.17;;;0.17;;
10303;SDS011;5197;48.152;8.590;2023-08-06T13:24:57;0.30;;;0.30;;
10303;SDS011;5197;48.152;8.590;2023-08-06T13:27:24;0.10;;;0.10;;
10303;SDS011;5197;48.152;8.590;2023-08-06T13:29:51;0.10;;;0.10;;
10303;SDS011;5197;48.152;8.590;2023-08-06T13:32:18;0.33;;;0.10;;
10303;SDS011;5197;48.152;8.590;2023-08-06T13:34:45;0.40;;;0.30;;
10303;SDS011;5197;48.152;8.590;2023-08-06T13:37:11;0.03;;;0.03;;
10303;SDS011;5197;48.152;8.590;2023-08-06T13:39:38;0.53;;;0.30;;
10303;SDS011;5197;48.152;8.590;2023-08-06T13:42:06;0.10;;;0.10;;
10303;SDS011;5197;48.152;8.590;2023-08-06T13:44:33;0.20;;;0.20;;
10303;SDS011;5197;48.152;8.590;2023-08-06T13:47:02;0.30;;;0.30;;
10303;SDS011;5197;48.152;8.590;2023-08-06T13:49:29;0.20;;;0.13;;
10303;SDS011;5197;48.152;8.590;2023-08-06T13:51:56;0.23;;;0.23;;
10303;SDS011;5197;48.152;8.590;2023-08-06T13:54:37;0.30;;;0.30;;
10303;SDS011;5197;48.152;8.590;2023-08-06T13:57:04;0.30;;;0.30;;
10303;SDS011;5197;48.152;8.590;2023-08-06T13:59:31;0.27;;;0.27;;
10303;SDS011;5197;48.152;8.590;2023-08-06T14:01:58;0.20;;;0.20;;
10303;SDS011;5197;48.152;8.590;2023-08-06T14:04:26;0.30;;;0.30;;
10303;SDS011;5197;48.152;8.590;2023-08-06T14:06:53;0.60;;;0.60;;
10303;SDS011;5197;48.152;8.590;2023-08-06T14:09:20;0.60;;;0.30;;
10303;SDS011;5197;48.152;8.590;2023-08-06T14:11:47;0.30;;;0.30;;
10303;SDS011;5197;48.152;8.590;2023-08-06T14:14:14;0.57;;;0.47;;
10303;SDS011;5197;48.152;8.590;2023-08-06T14:16:41;0.50;;;0.50;;
10303;SDS011;5197;48.152;8.590;2023-08-06T14:19:08;0.30;;;0.30;;
10303;SDS011;5197;48.152;8.590;2023-08-06T14:21:34;0.63;;;0.37;;
10303;SDS011;5197;48.152;8.590;2023-08-06T14:24:02;0.40;;;0.40;;
10303;SDS011;5197;48.152;8.590;2023-08-06T14:26:29;0.50;;;0.50;;
10303;SDS011;5197;48.152;8.590;2023-08-06T14:28:56;0.50;;;0.50;;
10303;SDS011;5197;48.152;8.590;2023-08-06T14:31:23;0.53;;;0.50;;
10303;SDS011;5197;48.152;8.590;2023-08-06T14:33:50;0.30;;;0.30;;
10303;SDS011;5197;48.152;8.590;2023-08-06T14:36:17;1.27;;;0.30;;
10303;SDS011;5197;48.152;8.590;2023-08-06T14:38:45;0.30;;;0.30;;
10303;SDS011;5197;48.152;8.590;2023-08-06T14:41:25;0.57;;;0.57;;
10303;SDS011;5197;48.152;8.590;2023-08-06T14:43:52;0.30;;;0.30;;
10303;SDS011;5197;48.152;8.590;2023-08-06T14:46:20;0.40;;;0.40;;
10303;SDS011;5197;48.152;8.590;2023-08-06T14:48:47;0.93;;;0.60;;
10303;SDS011;5197;48.152;8.590;2023-08-06T14:51:14;0.80;;;0.80;;
10303;SDS011;5197;48.152;8.590;2023-08-06T14:53:40;0.20;;;0.20;;
10303;SDS011;5197;48.152;8.590;2023-08-06T14:56:08;0.33;;;0.30;;
10303;SDS011;5197;48.152;8.590;2023-08-06T14:58:35;0.70;;;0.70;;
10303;SDS011;5197;48.152;8.590;2023-08-06T15:01:02;0.77;;;0.33;;
10303;SDS011;5197;48.152;8.590;2023-08-06T15:03:29;0.60;;;0.60;;
10303;SDS011;5197;48.152;8.590;2023-08-06T15:05:57;0.80;;;0.80;;
10303;SDS011;5197;48.152;8.590;2023-08-06T15:08:24;0.67;;;0.60;;
10303;SDS011;5197;48.152;8.590;2023-08-06T15:10:52;0.80;;;0.80;;
10303;SDS011;5197;48.152;8.590;2023-08-06T15:13:19;0.80;;;0.80;;
10303;SDS011;5197;48.152;8.590;2023-08-06T15:15:47;0.60;;;0.60;;
10303;SDS011;5197;48.152;8.590;2023-08-06T15:18:14;0.70;;;0.70;;
10303;SDS011;5197;48.152;8.590;2023-08-06T15:20:41;0.67;;;0.67;;
10303;SDS011;5197;48.152;8.590;2023-08-06T15:23:08;0.70;;;0.70;;
10303;SDS011;5197;48.152;8.590;2023-08-06T15:25:37;1.10;;;1.00;;